sensor_id;sensor_type;location;lat;lon;timestamp;P1;durP1;ratioP1;P2;durP2;ratioP2
73107;SDS011;61559;50.476;15.588;2023-03-19T00:00:38;25.10;;;11.70;;
73107;SDS011;61559;50.476;15.588;2023-03-19T00:03:29;26.20;;;13.70;;
73107;SDS011;61559;50.476;15.588;2023-03-19T00:08:31;22.50;;;11.00;;
73107;SDS011;61559;50.476;15.588;2023-03-19T00:11:05;24.80;;;11.80;;
73107;SDS011;61559;50.476;15.588;2023-03-19T00:13:38;23.90;;;11.90;;
73107;SDS011;61559;50.476;15.588;2023-03-19T00:16:09;25.50;;;12.30;;
73107;SDS011;61559;50.476;15.588;2023-03-19T00:18:40;25.10;;;12.10;;
73107;SDS011;61559;50.476;15.588;2023-03-19T00:21:11;27.20;;;12.10;;
73107;SDS011;61559;50.476;15.588;2023-03-19T00:23:42;26.70;;;11.80;;
73107;SDS011;61559;50.476;15.588;2023-03-19T00:26:14;27.90;;;11.80;;
73107;SDS011;61559;50.476;15.588;2023-03-19T00:28:45;27.80;;;12.60;;
73107;SDS011;61559;50.476;15.588;2023-03-19T00:31:16;25.40;;;11.60;;
73107;SDS011;61559;50.476;15.588;2023-03-19T00:33:47;22.40;;;11.70;;
73107;SDS011;61559;50.476;15.588;2023-03-19T00:36:18;25.50;;;12.10;;
73107;SDS011;61559;50.476;15.588;2023-03-19T00:38:50;29.20;;;13.90;;
73107;SDS011;61559;50.476;15.588;2023-03-19T00:41:21;24.70;;;12.90;;
73107;SDS011;61559;50.476;15.588;2023-03-19T00:43:54;21.80;;;11.00;;
73107;SDS011;61559;50.476;15.588;2023-03-19T00:46:26;23.40;;;11.20;;
73107;SDS011;61559;50.476;15.588;2023-03-19T00:48:57;25.20;;;12.10;;
73107;SDS011;61559;50.476;15.588;2023-03-19T00:51:29;24.70;;;12.10;;
73107;SDS011;61559;50.476;15.588;2023-03-19T00:54:00;29.00;;;14.00;;
73107;SDS011;61559;50.476;15.588;2023-03-19T00:56:31;27.50;;;12.50;;
73107;SDS011;61559;50.476;15.588;2023-03-19T00:59:02;26.90;;;13.50;;
73107;SDS011;61559;50.476;15.588;2023-03-19T01:01:34;26.00;;;11.60;;
73107;SDS011;61559;50.476;15.588;2023-03-19T01:04:05;21.50;;;11.50;;
73107;SDS011;61559;50.476;15.588;2023-03-19T01:06:38;20.80;;;9.50;;
73107;SDS011;61559;50.476;15.588;2023-03-19T01:09:09;22.50;;;10.90;;
73107;SDS011;61559;50.476;15.588;2023-03-19T01:11:44;25.30;;;12.60;;
73107;SDS011;61559;50.476;15.588;2023-03-19T01:14:15;24.90;;;12.00;;
73107;SDS011;61559;50.476;15.588;2023-03-19T01:16:46;26.20;;;11.80;;
73107;SDS011;61559;50.476;15.588;2023-03-19T01:19:18;23.70;;;10.40;;
73107;SDS011;61559;50.476;15.588;2023-03-19T01:21:49;20.30;;;8.50;;
73107;SDS011;61559;50.476;15.588;2023-03-19T01:24:21;24.80;;;11.70;;
73107;SDS011;61559;50.476;15.588;2023-03-19T01:26:52;27.70;;;13.10;;
73107;SDS011;61559;50.476;15.588;2023-03-19T01:29:23;27.20;;;12.50;;
73107;SDS011;61559;50.476;15.588;2023-03-19T01:31:54;29.20;;;12.30;;
73107;SDS011;61559;50.476;15.588;2023-03-19T01:34:25;21.90;;;11.00;;
73107;SDS011;61559;50.476;15.588;2023-03-19T01:36:56;21.50;;;9.40;;
73107;SDS011;61559;50.476;15.588;2023-03-19T01:39:28;21.40;;;10.50;;
73107;SDS011;61559;50.476;15.588;2023-03-19T01:44:31;23.80;;;10.30;;
73107;SDS011;61559;50.476;15.588;2023-03-19T01:47:05;22.50;;;9.80;;
73107;SDS011;61559;50.476;15.588;2023-03-19T01:49:43;16.90;;;9.50;;
73107;SDS011;61559;50.476;15.588;2023-03-19T01:52:23;18.00;;;8.80;;
73107;SDS011;61559;50.476;15.588;2023-03-19T01:54:57;18.60;;;9.40;;
73107;SDS011;61559;50.476;15.588;2023-03-19T01:57:30;19.30;;;9.60;;
73107;SDS011;61559;50.476;15.588;2023-03-19T02:00:02;18.60;;;8.30;;
73107;SDS011;61559;50.476;15.588;2023-03-19T02:02:35;23.10;;;9.20;;
73107;SDS011;61559;50.476;15.588;2023-03-19T02:05:10;17.10;;;8.40;;
73107;SDS011;61559;50.476;15.588;2023-03-19T02:07:53;23.10;;;10.40;;
73107;SDS011;61559;50.476;15.588;2023-03-19T02:10:28;18.50;;;9.40;;
73107;SDS011;61559;50.476;15.588;2023-03-19T02:13:01;19.10;;;9.30;;
73107;SDS011;61559;50.476;15.588;2023-03-19T02:15:32;23.00;;;10.30;;
73107;SDS011;61559;50.476;15.588;2023-03-19T02:18:03;19.90;;;10.00;;
73107;SDS011;61559;50.476;15.588;2023-03-19T02:20:38;17.90;;;9.70;;
73107;SDS011;61559;50.476;15.588;2023-03-19T02:23:20;14.90;;;8.20;;
73107;SDS011;61559;50.476;15.588;2023-03-19T02:26:07;18.20;;;8.50;;
73107;SDS011;61559;50.476;15.588;2023-03-19T02:28:40;17.50;;;7.80;;
73107;SDS011;61559;50.476;15.588;2023-03-19T02:31:14;21.50;;;9.50;;
73107;SDS011;61559;50.476;15.588;2023-03-19T02:33:56;19.70;;;9.30;;
73107;SDS011;61559;50.476;15.588;2023-03-19T02:36:30;16.70;;;8.60;;
73107;SDS011;61559;50.476;15.588;2023-03-19T02:39:05;16.60;;;8.60;;
73107;SDS011;61559;50.476;15.588;2023-03-19T02:41:41;16.10;;;8.20;;
73107;SDS011;61559;50.476;15.588;2023-03-19T02:44:14;14.50;;;7.70;;
73107;SDS011;61559;50.476;15.588;2023-03-19T02:46:47;18.90;;;8.10;;
73107;SDS011;61559;50.476;15.588;2023-03-19T02:49:18;15.60;;;8.20;;
73107;SDS011;61559;50.476;15.588;2023-03-19T02:51:50;19.60;;;9.20;;
73107;SDS011;61559;50.476;15.588;2023-03-19T02:54:21;19.80;;;9.80;;
73107;SDS011;61559;50.476;15.588;2023-03-19T02:56:52;19.00;;;8.90;;
73107;SDS011;61559;50.476;15.588;2023-03-19T02:59:23;19.10;;;10.00;;
73107;SDS011;61559;50.476;15.588;2023-03-19T03:01:54;19.80;;;8.90;;
73107;SDS011;61559;50.476;15.588;2023-03-19T03:04:25;19.10;;;8.80;;
73107;SDS011;61559;50.476;15.588;2023-03-19T03:06:56;16.10;;;7.70;;
73107;SDS011;61559;50.476;15.588;2023-03-19T03:09:28;14.90;;;7.60;;
73107;SDS011;61559;50.476;15.588;2023-03-19T03:11:59;17.30;;;8.70;;
73107;SDS011;61559;50.476;15.588;2023-03-19T03:14:31;19.30;;;10.50;;
73107;SDS011;61559;50.476;15.588;2023-03-19T03:17:02;20.60;;;10.10;;
73107;SDS011;61559;50.476;15.588;2023-03-19T03:19:33;18.30;;;8.90;;
73107;SDS011;61559;50.476;15.588;2023-03-19T03:22:04;15.00;;;8.10;;
73107;SDS011;61559;50.476;15.588;2023-03-19T03:24:36;14.50;;;7.10;;
73107;SDS011;61559;50.476;15.588;2023-03-19T03:27:07;15.70;;;8.00;;
73107;SDS011;61559;50.476;15.588;2023-03-19T03:29:38;16.80;;;9.00;;
73107;SDS011;61559;50.476;15.588;2023-03-19T03:32:10;17.40;;;8.30;;
73107;SDS011;61559;50.476;15.588;2023-03-19T03:34:41;16.30;;;7.80;;
73107;SDS011;61559;50.476;15.588;2023-03-19T03:37:13;16.10;;;7.50;;
73107;SDS011;61559;50.476;15.588;2023-03-19T03:39:46;21.00;;;9.10;;
73107;SDS011;61559;50.476;15.588;2023-03-19T03:44:47;17.40;;;7.30;;
73107;SDS011;61559;50.476;15.588;2023-03-19T03:47:18;15.50;;;7.70;;
73107;SDS011;61559;50.476;15.588;2023-03-19T03:52:19;17.70;;;8.00;;
73107;SDS011;61559;50.476;15.588;2023-03-19T03:54:50;15.50;;;8.20;;
73107;SDS011;61559;50.476;15.588;2023-03-19T03:57:21;13.60;;;7.40;;
73107;SDS011;61559;50.476;15.588;2023-03-19T03:59:53;12.70;;;6.80;;
73107;SDS011;61559;50.476;15.588;2023-03-19T04:02:24;15.00;;;7.10;;
73107;SDS011;61559;50.476;15.588;2023-03-19T04:04:56;14.80;;;6.80;;
73107;SDS011;61559;50.476;15.588;2023-03-19T04:07:28;16.90;;;8.30;;
73107;SDS011;61559;50.476;15.588;2023-03-19T04:09:59;16.30;;;8.30;;
73107;SDS011;61559;50.476;15.588;2023-03-19T04:12:30;13.10;;;7.40;;
73107;SDS011;61559;50.476;15.588;2023-03-19T04:15:02;17.00;;;7.00;;
73107;SDS011;61559;50.476;15.588;2023-03-19T04:17:34;17.50;;;8.10;;
73107;SDS011;61559;50.476;15.588;2023-03-19T04:20:09;10.80;;;6.50;;
73107;SDS011;61559;50.476;15.588;2023-03-19T04:22:43;14.20;;;7.00;;
73107;SDS011;61559;50.476;15.588;2023-03-19T04:25:15;16.90;;;8.10;;
73107;SDS011;61559;50.476;15.588;2023-03-19T04:27:46;17.80;;;8.20;;
73107;SDS011;61559;50.476;15.588;2023-03-19T04:30:18;12.90;;;6.50;;
73107;SDS011;61559;50.476;15.588;2023-03-19T04:32:49;14.00;;;7.60;;
73107;SDS011;61559;50.476;15.588;2023-03-19T04:35:21;12.90;;;6.90;;
73107;SDS011;61559;50.476;15.588;2023-03-19T04:37:52;13.40;;;6.60;;
73107;SDS011;61559;50.476;15.588;2023-03-19T04:40:23;14.00;;;6.80;;
73107;SDS011;61559;50.476;15.588;2023-03-19T04:42:55;15.80;;;7.00;;
73107;SDS011;61559;50.476;15.588;2023-03-19T04:45:26;16.70;;;6.70;;
73107;SDS011;61559;50.476;15.588;2023-03-19T04:47:58;13.40;;;7.50;;
73107;SDS011;61559;50.476;15.588;2023-03-19T04:50:30;14.00;;;6.50;;
73107;SDS011;61559;50.476;15.588;2023-03-19T04:55:32;13.00;;;6.20;;
73107;SDS011;61559;50.476;15.588;2023-03-19T04:58:03;11.90;;;6.50;;
73107;SDS011;61559;50.476;15.588;2023-03-19T05:00:36;14.60;;;7.30;;
73107;SDS011;61559;50.476;15.588;2023-03-19T05:03:07;19.50;;;8.30;;
73107;SDS011;61559;50.476;15.588;2023-03-19T05:05:38;17.80;;;7.50;;
73107;SDS011;61559;50.476;15.588;2023-03-19T05:08:10;14.50;;;7.90;;
73107;SDS011;61559;50.476;15.588;2023-03-19T05:10:41;16.10;;;7.50;;
73107;SDS011;61559;50.476;15.588;2023-03-19T05:13:12;15.10;;;7.20;;
73107;SDS011;61559;50.476;15.588;2023-03-19T05:15:44;17.90;;;8.40;;
73107;SDS011;61559;50.476;15.588;2023-03-19T05:18:15;15.90;;;8.30;;
73107;SDS011;61559;50.476;15.588;2023-03-19T05:20:47;13.80;;;6.80;;
73107;SDS011;61559;50.476;15.588;2023-03-19T05:23:18;13.00;;;6.30;;
73107;SDS011;61559;50.476;15.588;2023-03-19T05:25:50;16.20;;;7.70;;
73107;SDS011;61559;50.476;15.588;2023-03-19T05:28:21;13.70;;;6.70;;
73107;SDS011;61559;50.476;15.588;2023-03-19T05:30:53;11.50;;;6.40;;
73107;SDS011;61559;50.476;15.588;2023-03-19T05:33:24;15.20;;;7.70;;
73107;SDS011;61559;50.476;15.588;2023-03-19T05:35:56;14.60;;;7.50;;
73107;SDS011;61559;50.476;15.588;2023-03-19T05:38:27;12.70;;;7.20;;
73107;SDS011;61559;50.476;15.588;2023-03-19T05:40:58;13.80;;;6.70;;
73107;SDS011;61559;50.476;15.588;2023-03-19T05:43:33;13.50;;;7.00;;
73107;SDS011;61559;50.476;15.588;2023-03-19T05:46:04;13.30;;;7.30;;
73107;SDS011;61559;50.476;15.588;2023-03-19T05:51:05;12.00;;;6.50;;
73107;SDS011;61559;50.476;15.588;2023-03-19T05:53:36;16.20;;;7.30;;
73107;SDS011;61559;50.476;15.588;2023-03-19T05:56:09;16.10;;;7.50;;
73107;SDS011;61559;50.476;15.588;2023-03-19T05:58:40;11.90;;;6.60;;
73107;SDS011;61559;50.476;15.588;2023-03-19T06:01:11;10.50;;;5.60;;
73107;SDS011;61559;50.476;15.588;2023-03-19T06:03:43;9.30;;;5.20;;
73107;SDS011;61559;50.476;15.588;2023-03-19T06:06:15;15.90;;;7.20;;
73107;SDS011;61559;50.476;15.588;2023-03-19T06:08:46;13.30;;;6.50;;
73107;SDS011;61559;50.476;15.588;2023-03-19T06:11:17;12.00;;;6.70;;
73107;SDS011;61559;50.476;15.588;2023-03-19T06:13:48;14.60;;;7.30;;
73107;SDS011;61559;50.476;15.588;2023-03-19T06:16:19;15.00;;;7.50;;
73107;SDS011;61559;50.476;15.588;2023-03-19T06:18:50;12.10;;;7.30;;
73107;SDS011;61559;50.476;15.588;2023-03-19T06:21:21;12.20;;;6.70;;
73107;SDS011;61559;50.476;15.588;2023-03-19T06:23:56;14.30;;;7.50;;
73107;SDS011;61559;50.476;15.588;2023-03-19T06:26:28;18.90;;;10.10;;
73107;SDS011;61559;50.476;15.588;2023-03-19T06:28:59;38.90;;;17.10;;
73107;SDS011;61559;50.476;15.588;2023-03-19T06:31:30;35.10;;;14.80;;
73107;SDS011;61559;50.476;15.588;2023-03-19T06:34:01;31.20;;;12.50;;
73107;SDS011;61559;50.476;15.588;2023-03-19T06:36:32;17.80;;;9.00;;
73107;SDS011;61559;50.476;15.588;2023-03-19T06:39:04;13.60;;;7.00;;
73107;SDS011;61559;50.476;15.588;2023-03-19T06:41:35;16.10;;;7.40;;
73107;SDS011;61559;50.476;15.588;2023-03-19T06:44:06;10.50;;;6.60;;
73107;SDS011;61559;50.476;15.588;2023-03-19T06:46:37;14.40;;;7.40;;
73107;SDS011;61559;50.476;15.588;2023-03-19T06:49:08;12.00;;;6.20;;
73107;SDS011;61559;50.476;15.588;2023-03-19T06:51:40;12.30;;;6.60;;
73107;SDS011;61559;50.476;15.588;2023-03-19T06:56:41;15.80;;;7.90;;
73107;SDS011;61559;50.476;15.588;2023-03-19T06:59:12;22.90;;;10.60;;
73107;SDS011;61559;50.476;15.588;2023-03-19T07:01:44;21.30;;;11.20;;
73107;SDS011;61559;50.476;15.588;2023-03-19T07:04:15;29.40;;;12.30;;
73107;SDS011;61559;50.476;15.588;2023-03-19T07:06:47;28.40;;;11.50;;
73107;SDS011;61559;50.476;15.588;2023-03-19T07:11:47;24.10;;;10.70;;
73107;SDS011;61559;50.476;15.588;2023-03-19T07:14:19;19.40;;;10.30;;
73107;SDS011;61559;50.476;15.588;2023-03-19T07:16:50;24.80;;;12.40;;
73107;SDS011;61559;50.476;15.588;2023-03-19T07:19:22;25.80;;;11.50;;
73107;SDS011;61559;50.476;15.588;2023-03-19T07:21:53;23.60;;;12.40;;
73107;SDS011;61559;50.476;15.588;2023-03-19T07:26:54;33.10;;;15.20;;
73107;SDS011;61559;50.476;15.588;2023-03-19T07:31:55;31.30;;;18.10;;
73107;SDS011;61559;50.476;15.588;2023-03-19T07:36:56;21.20;;;12.20;;
73107;SDS011;61559;50.476;15.588;2023-03-19T07:39:28;19.60;;;10.10;;
73107;SDS011;61559;50.476;15.588;2023-03-19T07:41:59;24.20;;;10.90;;
73107;SDS011;61559;50.476;15.588;2023-03-19T07:44:31;23.80;;;12.50;;
73107;SDS011;61559;50.476;15.588;2023-03-19T07:47:03;29.90;;;14.30;;
73107;SDS011;61559;50.476;15.588;2023-03-19T07:49:53;29.90;;;15.00;;
73107;SDS011;61559;50.476;15.588;2023-03-19T07:52:24;29.00;;;14.50;;
73107;SDS011;61559;50.476;15.588;2023-03-19T07:57:25;25.50;;;14.40;;
73107;SDS011;61559;50.476;15.588;2023-03-19T07:59:56;21.00;;;12.40;;
73107;SDS011;61559;50.476;15.588;2023-03-19T08:02:27;38.20;;;13.00;;
73107;SDS011;61559;50.476;15.588;2023-03-19T08:04:58;21.10;;;11.80;;
73107;SDS011;61559;50.476;15.588;2023-03-19T08:07:31;27.40;;;13.40;;
73107;SDS011;61559;50.476;15.588;2023-03-19T08:10:04;36.10;;;17.60;;
73107;SDS011;61559;50.476;15.588;2023-03-19T08:12:37;26.70;;;14.10;;
73107;SDS011;61559;50.476;15.588;2023-03-19T08:15:11;15.40;;;7.80;;
73107;SDS011;61559;50.476;15.588;2023-03-19T08:17:42;40.30;;;18.60;;
73107;SDS011;61559;50.476;15.588;2023-03-19T08:20:14;16.90;;;9.30;;
73107;SDS011;61559;50.476;15.588;2023-03-19T08:22:49;14.30;;;6.80;;
73107;SDS011;61559;50.476;15.588;2023-03-19T08:25:20;13.30;;;7.50;;
73107;SDS011;61559;50.476;15.588;2023-03-19T08:27:52;15.00;;;7.10;;
73107;SDS011;61559;50.476;15.588;2023-03-19T08:30:23;14.30;;;6.90;;
73107;SDS011;61559;50.476;15.588;2023-03-19T08:32:54;10.60;;;6.00;;
73107;SDS011;61559;50.476;15.588;2023-03-19T08:35:27;15.50;;;7.70;;
73107;SDS011;61559;50.476;15.588;2023-03-19T08:37:58;8.30;;;5.50;;
73107;SDS011;61559;50.476;15.588;2023-03-19T08:40:29;20.40;;;10.10;;
73107;SDS011;61559;50.476;15.588;2023-03-19T08:43:01;11.80;;;6.90;;
73107;SDS011;61559;50.476;15.588;2023-03-19T08:45:33;9.90;;;5.70;;
73107;SDS011;61559;50.476;15.588;2023-03-19T08:48:05;9.70;;;5.60;;
73107;SDS011;61559;50.476;15.588;2023-03-19T08:53:05;10.40;;;5.10;;
73107;SDS011;61559;50.476;15.588;2023-03-19T08:55:36;11.60;;;6.30;;
73107;SDS011;61559;50.476;15.588;2023-03-19T08:58:08;12.40;;;6.50;;
73107;SDS011;61559;50.476;15.588;2023-03-19T09:03:08;8.60;;;5.40;;
73107;SDS011;61559;50.476;15.588;2023-03-19T09:05:40;10.30;;;5.70;;
73107;SDS011;61559;50.476;15.588;2023-03-19T09:08:12;11.10;;;6.60;;
73107;SDS011;61559;50.476;15.588;2023-03-19T09:10:43;11.10;;;5.90;;
73107;SDS011;61559;50.476;15.588;2023-03-19T09:13:17;11.00;;;6.10;;
73107;SDS011;61559;50.476;15.588;2023-03-19T09:15:49;11.70;;;5.70;;
73107;SDS011;61559;50.476;15.588;2023-03-19T09:18:20;10.70;;;6.10;;
73107;SDS011;61559;50.476;15.588;2023-03-19T09:20:53;8.80;;;5.10;;
73107;SDS011;61559;50.476;15.588;2023-03-19T09:23:25;9.00;;;5.00;;
73107;SDS011;61559;50.476;15.588;2023-03-19T09:25:56;9.00;;;5.30;;
73107;SDS011;61559;50.476;15.588;2023-03-19T09:28:27;7.50;;;5.50;;
73107;SDS011;61559;50.476;15.588;2023-03-19T09:30:58;12.90;;;5.80;;
73107;SDS011;61559;50.476;15.588;2023-03-19T09:33:34;10.00;;;5.80;;
73107;SDS011;61559;50.476;15.588;2023-03-19T09:36:06;12.30;;;6.00;;
73107;SDS011;61559;50.476;15.588;2023-03-19T09:38:38;13.40;;;6.30;;
73107;SDS011;61559;50.476;15.588;2023-03-19T09:41:09;12.20;;;6.80;;
73107;SDS011;61559;50.476;15.588;2023-03-19T09:43:54;13.90;;;8.10;;
73107;SDS011;61559;50.476;15.588;2023-03-19T09:46:35;13.90;;;7.50;;
73107;SDS011;61559;50.476;15.588;2023-03-19T09:49:13;9.30;;;5.60;;
73107;SDS011;61559;50.476;15.588;2023-03-19T09:51:51;12.40;;;6.50;;
73107;SDS011;61559;50.476;15.588;2023-03-19T09:54:28;11.60;;;7.00;;
73107;SDS011;61559;50.476;15.588;2023-03-19T09:57:02;10.90;;;5.60;;
73107;SDS011;61559;50.476;15.588;2023-03-19T09:59:33;13.00;;;8.00;;
73107;SDS011;61559;50.476;15.588;2023-03-19T10:02:13;12.30;;;6.60;;
73107;SDS011;61559;50.476;15.588;2023-03-19T10:05:08;12.10;;;5.30;;
73107;SDS011;61559;50.476;15.588;2023-03-19T10:07:52;13.00;;;6.80;;
73107;SDS011;61559;50.476;15.588;2023-03-19T10:10:46;12.10;;;6.00;;
73107;SDS011;61559;50.476;15.588;2023-03-19T10:13:32;8.90;;;5.80;;
73107;SDS011;61559;50.476;15.588;2023-03-19T10:16:11;9.30;;;5.90;;
73107;SDS011;61559;50.476;15.588;2023-03-19T10:18:48;10.80;;;6.80;;
73107;SDS011;61559;50.476;15.588;2023-03-19T10:21:21;11.80;;;6.90;;
73107;SDS011;61559;50.476;15.588;2023-03-19T10:23:59;14.60;;;7.40;;
73107;SDS011;61559;50.476;15.588;2023-03-19T10:26:35;13.40;;;7.50;;
73107;SDS011;61559;50.476;15.588;2023-03-19T10:29:07;16.80;;;8.40;;
73107;SDS011;61559;50.476;15.588;2023-03-19T10:31:45;12.60;;;7.00;;
73107;SDS011;61559;50.476;15.588;2023-03-19T10:34:26;12.00;;;5.80;;
73107;SDS011;61559;50.476;15.588;2023-03-19T10:37:01;11.50;;;6.20;;
73107;SDS011;61559;50.476;15.588;2023-03-19T10:39:34;9.90;;;5.90;;
73107;SDS011;61559;50.476;15.588;2023-03-19T10:42:12;11.10;;;6.30;;
73107;SDS011;61559;50.476;15.588;2023-03-19T10:44:55;12.50;;;6.00;;
73107;SDS011;61559;50.476;15.588;2023-03-19T10:47:34;15.00;;;9.50;;
73107;SDS011;61559;50.476;15.588;2023-03-19T10:50:10;17.60;;;9.30;;
73107;SDS011;61559;50.476;15.588;2023-03-19T10:52:49;13.40;;;8.30;;
73107;SDS011;61559;50.476;15.588;2023-03-19T10:55:29;13.80;;;8.20;;
73107;SDS011;61559;50.476;15.588;2023-03-19T10:58:03;14.90;;;7.90;;
73107;SDS011;61559;50.476;15.588;2023-03-19T11:00:35;11.90;;;7.10;;
73107;SDS011;61559;50.476;15.588;2023-03-19T11:03:09;11.80;;;7.50;;
73107;SDS011;61559;50.476;15.588;2023-03-19T11:06:04;23.60;;;10.70;;
73107;SDS011;61559;50.476;15.588;2023-03-19T11:08:46;11.40;;;6.60;;
73107;SDS011;61559;50.476;15.588;2023-03-19T11:11:31;12.90;;;7.60;;
73107;SDS011;61559;50.476;15.588;2023-03-19T11:14:08;10.80;;;7.10;;
73107;SDS011;61559;50.476;15.588;2023-03-19T11:16:50;10.50;;;6.40;;
73107;SDS011;61559;50.476;15.588;2023-03-19T11:19:30;9.50;;;6.30;;
73107;SDS011;61559;50.476;15.588;2023-03-19T11:22:12;12.00;;;8.20;;
73107;SDS011;61559;50.476;15.588;2023-03-19T11:24:49;10.80;;;6.60;;
73107;SDS011;61559;50.476;15.588;2023-03-19T11:27:28;11.20;;;6.60;;
73107;SDS011;61559;50.476;15.588;2023-03-19T11:30:03;13.90;;;6.90;;
73107;SDS011;61559;50.476;15.588;2023-03-19T11:32:56;11.10;;;6.80;;
73107;SDS011;61559;50.476;15.588;2023-03-19T11:35:40;12.80;;;7.30;;
73107;SDS011;61559;50.476;15.588;2023-03-19T11:38:17;10.30;;;6.90;;
73107;SDS011;61559;50.476;15.588;2023-03-19T11:40:54;8.90;;;6.40;;
73107;SDS011;61559;50.476;15.588;2023-03-19T11:43:47;10.20;;;6.10;;
73107;SDS011;61559;50.476;15.588;2023-03-19T11:46:33;11.60;;;8.10;;
73107;SDS011;61559;50.476;15.588;2023-03-19T11:49:14;10.80;;;7.00;;
73107;SDS011;61559;50.476;15.588;2023-03-19T11:52:13;10.10;;;6.90;;
73107;SDS011;61559;50.476;15.588;2023-03-19T11:54:59;11.80;;;8.00;;
73107;SDS011;61559;50.476;15.588;2023-03-19T11:57:48;10.70;;;5.90;;
73107;SDS011;61559;50.476;15.588;2023-03-19T12:00:31;11.10;;;6.60;;
73107;SDS011;61559;50.476;15.588;2023-03-19T12:03:15;11.20;;;6.00;;
73107;SDS011;61559;50.476;15.588;2023-03-19T12:06:02;12.00;;;8.00;;
73107;SDS011;61559;50.476;15.588;2023-03-19T12:08:45;11.00;;;6.60;;
73107;SDS011;61559;50.476;15.588;2023-03-19T12:11:24;8.90;;;6.50;;
73107;SDS011;61559;50.476;15.588;2023-03-19T12:14:07;12.20;;;6.80;;
73107;SDS011;61559;50.476;15.588;2023-03-19T12:19:49;11.00;;;6.80;;
73107;SDS011;61559;50.476;15.588;2023-03-19T12:22:36;13.40;;;7.80;;
73107;SDS011;61559;50.476;15.588;2023-03-19T12:25:21;12.00;;;6.90;;
73107;SDS011;61559;50.476;15.588;2023-03-19T12:28:00;12.40;;;7.10;;
73107;SDS011;61559;50.476;15.588;2023-03-19T12:30:40;10.50;;;6.70;;
73107;SDS011;61559;50.476;15.588;2023-03-19T12:33:23;13.20;;;6.70;;
73107;SDS011;61559;50.476;15.588;2023-03-19T12:36:06;12.60;;;7.20;;
73107;SDS011;61559;50.476;15.588;2023-03-19T12:38:42;10.30;;;7.10;;
73107;SDS011;61559;50.476;15.588;2023-03-19T12:41:18;10.30;;;6.70;;
73107;SDS011;61559;50.476;15.588;2023-03-19T12:43:53;11.60;;;6.90;;
73107;SDS011;61559;50.476;15.588;2023-03-19T12:46:30;12.20;;;6.60;;
73107;SDS011;61559;50.476;15.588;2023-03-19T12:49:06;15.90;;;7.80;;
73107;SDS011;61559;50.476;15.588;2023-03-19T12:51:45;13.90;;;6.80;;
73107;SDS011;61559;50.476;15.588;2023-03-19T12:54:22;12.90;;;6.90;;
73107;SDS011;61559;50.476;15.588;2023-03-19T12:56:55;12.20;;;7.50;;
73107;SDS011;61559;50.476;15.588;2023-03-19T12:59:32;10.80;;;6.50;;
73107;SDS011;61559;50.476;15.588;2023-03-19T13:04:45;10.70;;;6.30;;
73107;SDS011;61559;50.476;15.588;2023-03-19T13:07:23;11.40;;;6.60;;
73107;SDS011;61559;50.476;15.588;2023-03-19T13:10:03;11.30;;;6.40;;
73107;SDS011;61559;50.476;15.588;2023-03-19T13:12:39;10.40;;;6.40;;
73107;SDS011;61559;50.476;15.588;2023-03-19T13:15:12;17.20;;;7.00;;
73107;SDS011;61559;50.476;15.588;2023-03-19T13:17:51;14.50;;;7.90;;
73107;SDS011;61559;50.476;15.588;2023-03-19T13:20:33;25.90;;;13.40;;
73107;SDS011;61559;50.476;15.588;2023-03-19T13:23:20;23.00;;;11.30;;
73107;SDS011;61559;50.476;15.588;2023-03-19T13:25:56;21.80;;;10.80;;
73107;SDS011;61559;50.476;15.588;2023-03-19T13:28:32;11.80;;;7.40;;
73107;SDS011;61559;50.476;15.588;2023-03-19T13:31:06;11.10;;;6.30;;
73107;SDS011;61559;50.476;15.588;2023-03-19T13:33:52;10.70;;;7.00;;
73107;SDS011;61559;50.476;15.588;2023-03-19T13:36:30;9.60;;;6.50;;
73107;SDS011;61559;50.476;15.588;2023-03-19T13:39:11;16.30;;;9.40;;
73107;SDS011;61559;50.476;15.588;2023-03-19T13:41:53;11.60;;;7.70;;
73107;SDS011;61559;50.476;15.588;2023-03-19T13:44:37;11.60;;;7.60;;
73107;SDS011;61559;50.476;15.588;2023-03-19T13:50:25;14.10;;;7.20;;
73107;SDS011;61559;50.476;15.588;2023-03-19T13:53:21;25.00;;;13.10;;
73107;SDS011;61559;50.476;15.588;2023-03-19T13:56:04;20.10;;;10.90;;
73107;SDS011;61559;50.476;15.588;2023-03-19T14:01:54;23.60;;;12.00;;
73107;SDS011;61559;50.476;15.588;2023-03-19T14:04:27;14.30;;;8.30;;
73107;SDS011;61559;50.476;15.588;2023-03-19T14:07:09;12.10;;;7.30;;
73107;SDS011;61559;50.476;15.588;2023-03-19T14:09:46;10.50;;;6.50;;
73107;SDS011;61559;50.476;15.588;2023-03-19T14:12:24;22.90;;;11.80;;
73107;SDS011;61559;50.476;15.588;2023-03-19T14:15:01;12.20;;;7.90;;
73107;SDS011;61559;50.476;15.588;2023-03-19T14:17:45;9.40;;;5.70;;
73107;SDS011;61559;50.476;15.588;2023-03-19T14:20:26;12.10;;;6.60;;
73107;SDS011;61559;50.476;15.588;2023-03-19T14:23:15;12.20;;;6.60;;
73107;SDS011;61559;50.476;15.588;2023-03-19T14:26:04;13.30;;;7.70;;
73107;SDS011;61559;50.476;15.588;2023-03-19T14:28:43;11.30;;;7.30;;
73107;SDS011;61559;50.476;15.588;2023-03-19T14:31:25;9.20;;;5.90;;
73107;SDS011;61559;50.476;15.588;2023-03-19T14:34:05;10.30;;;6.30;;
73107;SDS011;61559;50.476;15.588;2023-03-19T14:36:46;15.10;;;7.90;;
73107;SDS011;61559;50.476;15.588;2023-03-19T14:39:21;12.50;;;7.00;;
73107;SDS011;61559;50.476;15.588;2023-03-19T14:41:57;12.30;;;6.70;;
73107;SDS011;61559;50.476;15.588;2023-03-19T14:44:38;12.50;;;6.80;;
73107;SDS011;61559;50.476;15.588;2023-03-19T14:53:39;13.40;;;7.60;;
73107;SDS011;61559;50.476;15.588;2023-03-19T14:56:14;13.90;;;7.60;;
73107;SDS011;61559;50.476;15.588;2023-03-19T14:58:52;14.20;;;8.40;;
73107;SDS011;61559;50.476;15.588;2023-03-19T15:01:24;13.60;;;7.70;;
73107;SDS011;61559;50.476;15.588;2023-03-19T15:03:56;13.70;;;7.60;;
73107;SDS011;61559;50.476;15.588;2023-03-19T15:06:31;17.00;;;9.50;;
73107;SDS011;61559;50.476;15.588;2023-03-19T15:09:08;21.10;;;12.90;;
73107;SDS011;61559;50.476;15.588;2023-03-19T15:11:52;14.10;;;9.40;;
73107;SDS011;61559;50.476;15.588;2023-03-19T15:14:47;18.80;;;12.00;;
73107;SDS011;61559;50.476;15.588;2023-03-19T15:17:31;21.10;;;11.90;;
73107;SDS011;61559;50.476;15.588;2023-03-19T15:20:12;19.10;;;10.90;;
73107;SDS011;61559;50.476;15.588;2023-03-19T15:22:45;16.30;;;8.70;;
73107;SDS011;61559;50.476;15.588;2023-03-19T15:25:23;14.40;;;8.30;;
73107;SDS011;61559;50.476;15.588;2023-03-19T15:28:05;13.80;;;7.80;;
73107;SDS011;61559;50.476;15.588;2023-03-19T15:30:41;19.50;;;11.20;;
73107;SDS011;61559;50.476;15.588;2023-03-19T15:33:31;16.60;;;10.10;;
73107;SDS011;61559;50.476;15.588;2023-03-19T15:36:11;19.30;;;10.10;;
73107;SDS011;61559;50.476;15.588;2023-03-19T15:38:46;14.00;;;8.90;;
73107;SDS011;61559;50.476;15.588;2023-03-19T15:41:20;14.10;;;9.80;;
73107;SDS011;61559;50.476;15.588;2023-03-19T15:43:54;17.60;;;8.90;;
73107;SDS011;61559;50.476;15.588;2023-03-19T15:46:26;16.30;;;9.00;;
73107;SDS011;61559;50.476;15.588;2023-03-19T15:49:02;14.30;;;8.70;;
73107;SDS011;61559;50.476;15.588;2023-03-19T15:51:39;14.50;;;8.40;;
73107;SDS011;61559;50.476;15.588;2023-03-19T15:54:13;14.80;;;8.20;;
73107;SDS011;61559;50.476;15.588;2023-03-19T15:56:44;15.10;;;9.10;;